Time;durP1;ratioP1;P1;durP2;ratioP2;P2;SDS_P1;SDS_P2;PMS_P1;PMS_P2;Temp;Humidity;BMP_temperature;BMP_pressure;BME280_temperature;BME280_humidity;BME280_pressure;Samples;Min_cycle;Max_cycle;Signal;HPM_P1;HPM_P2
2022/06/15 00:01:25;;;;;;;7.20;6.47;;;;;;;12.97;100.00;99823.09;570510;23;20529;-82
2022/06/15 00:08:25;;;;;;;7.57;6.77;;;;;;;12.79;100.00;99816.72;5036480;23;20224;-82
2022/06/15 00:11:42;;;;;;;9.00;7.00;;;;;;;12.71;100.00;99817.03;5039045;28;20176;-83
2022/06/15 00:14:30;;;;;;;9.00;6.90;;;;;;;12.69;100.00;99816.44;5038318;28;20200;-83
2022/06/15 00:17:26;;;;;;;8.77;6.33;;;;;;;12.65;100.00;99817.94;5053669;23;20236;-82
2022/06/15 00:20:26;;;;;;;7.00;6.40;;;;;;;12.58;100.00;99813.72;5066137;23;20216;-82
2022/06/15 00:23:51;;;;;;;7.10;6.40;;;;;;;12.55;100.00;99820.38;5053486;23;20218;-82
2022/06/15 00:27:07;;;;;;;9.23;6.47;;;;;;;12.49;100.00;99810.53;5087382;23;20238;-82
2022/06/15 00:36:51;;;;;;;8.13;6.30;;;;;;;12.35;100.00;99823.34;5052600;23;20236;-83
2022/06/15 00:40:26;;;;;;;7.33;6.43;;;;;;;12.34;100.00;99826.22;5171945;22;20239;-82
2022/06/15 00:44:03;;;;;;;7.07;6.37;;;;;;;12.26;100.00;99818.50;4959327;29;20509;-82
2022/06/15 00:48:20;;;;;;;7.23;6.53;;;;;;;12.24;100.00;99824.09;5255157;23;20219;-83
2022/06/15 00:54:46;;;;;;;8.17;6.47;;;;;;;12.11;100.00;99810.00;5451772;23;20261;-83
2022/06/15 00:57:36;;;;;;;9.67;6.73;;;;;;;12.15;100.00;99814.69;5067314;23;20246;-82
2022/06/15 01:01:21;;;;;;;7.60;6.57;;;;;;;12.02;100.00;99822.91;5157032;23;20247;-83
2022/06/15 01:05:19;;;;;;;7.83;7.03;;;;;;;11.85;100.00;99811.94;5385300;23;20224;-82
2022/06/15 01:14:33;;;;;;;10.03;6.90;;;;;;;11.70;100.00;99824.88;1959279;23;20197;-80
2022/06/15 01:29:14;;;;;;;7.83;7.10;;;;;;;11.60;100.00;99826.41;5488381;23;20242;-83
2022/06/15 01:32:58;;;;;;;7.77;6.80;;;;;;;11.57;100.00;99821.50;5347041;23;20222;-82
2022/06/15 01:37:00;;;;;;;7.70;7.00;;;;;;;11.51;100.00;99819.69;4997190;23;20218;-83
2022/06/15 01:43:36;;;;;;;8.43;6.93;;;;;;;11.47;100.00;99820.16;5143870;23;20246;-84
2022/06/15 01:46:27;;;;;;;9.20;7.10;;;;;;;11.44;100.00;99815.22;5159911;23;20201;31
2022/06/15 01:52:49;;;;;;;9.73;7.43;;;;;;;11.41;100.00;99814.84;5137496;23;20270;-84
2022/06/15 01:56:52;;;;;;;7.93;7.13;;;;;;;11.39;100.00;99812.38;5167738;23;20236;-80
2022/06/15 02:00:48;;;;;;;8.73;7.23;;;;;;;11.34;100.00;99816.75;5106267;23;20232;-83
2022/06/15 02:04:46;;;;;;;8.83;7.93;;;;;;;11.33;100.00;99818.63;5627931;23;20190;31
2022/06/15 02:08:15;;;;;;;8.97;8.07;;;;;;;11.35;100.00;99815.69;5158579;23;20238;-82
2022/06/15 02:15:21;;;;;;;9.85;8.95;;;;;;;11.34;100.00;99817.56;4999005;23;20274;31
2022/06/15 02:19:13;;;;;;;9.53;8.70;;;;;;;11.27;100.00;99818.66;5091174;23;20326;-82
2022/06/15 02:21:53;;;;;;;9.20;8.40;;;;;;;11.27;100.00;99819.50;5028208;23;20249;-82
2022/06/15 02:25:33;;;;;;;11.03;9.03;;;;;;;11.19;100.00;99810.91;4927293;23;20210;-83
2022/06/15 02:28:09;;;;;;;9.50;8.60;;;;;;;11.18;100.00;99812.75;4962848;23;20240;-83
2022/06/15 02:30:39;;;;;;;10.37;9.37;;;;;;;11.14;100.00;99808.06;4904097;29;20620;-83
2022/06/15 02:33:19;;;;;;;10.30;9.30;;;;;;;11.11;100.00;99808.47;4895796;29;20740;-84
2022/06/15 02:35:46;;;;;;;10.40;9.40;;;;;;;11.11;100.00;99808.47;4887132;29;20194;-82
2022/06/15 02:38:16;;;;;;;9.90;8.90;;;;;;;11.10;100.00;99810.38;4886820;29;20206;-82
2022/06/15 02:40:44;;;;;;;11.53;9.40;;;;;;;11.13;100.00;99801.88;4886798;29;20290;-83
2022/06/15 02:43:15;;;;;;;12.37;9.57;;;;;;;11.15;100.00;99810.50;4886318;29;20202;-82
2022/06/15 02:45:44;;;;;;;11.50;10.23;;;;;;;11.19;100.00;99814.41;4885443;29;20226;-81
2022/06/15 02:48:11;;;;;;;10.57;9.60;;;;;;;11.19;100.00;99813.59;4888808;29;20198;-83
2022/06/15 02:50:50;;;;;;;10.87;9.23;;;;;;;11.25;100.00;99824.25;4904114;29;20203;-82
2022/06/15 02:53:20;;;;;;;10.80;9.73;;;;;;;11.25;100.00;99818.06;4903594;29;20278;-82
2022/06/15 02:55:47;;;;;;;10.10;9.10;;;;;;;11.23;100.00;99818.28;4888268;29;20194;-83
2022/06/15 02:58:30;;;;;;;10.33;9.23;;;;;;;11.27;100.00;99810.63;4904195;29;20445;-81
2022/06/15 03:00:59;;;;;;;10.47;9.50;;;;;;;11.30;100.00;99816.38;4905435;29;20212;-81
2022/06/15 03:03:29;;;;;;;10.20;9.20;;;;;;;11.34;100.00;99806.84;4907746;29;20205;-82
2022/06/15 03:06:18;;;;;;;9.83;8.90;;;;;;;11.37;100.00;99813.63;4907341;29;20237;-82
2022/06/15 03:08:49;;;;;;;9.90;9.10;;;;;;;11.41;100.00;99812.97;4893957;29;20286;-83
2022/06/15 03:11:25;;;;;;;9.93;8.93;;;;;;;11.44;100.00;99804.47;4907836;29;20665;-81
2022/06/15 03:13:56;;;;;;;9.77;8.83;;;;;;;11.47;100.00;99806.75;4911054;29;20194;-81
2022/06/15 03:16:23;;;;;;;9.77;8.87;;;;;;;11.50;100.00;99802.78;4911043;29;20202;-82
2022/06/15 03:18:50;;;;;;;9.37;8.43;;;;;;;11.59;100.00;99811.34;4909262;29;20612;-82
2022/06/15 03:21:18;;;;;;;9.53;8.73;;;;;;;11.61;100.00;99802.06;4909712;29;20717;-83
2022/06/15 03:23:45;;;;;;;10.40;8.80;;;;;;;11.71;100.00;99812.28;4920069;29;20273;-82
2022/06/15 03:26:14;;;;;;;9.77;8.97;;;;;;;11.82;100.00;99808.88;4900188;29;20215;-82
2022/06/15 03:28:41;;;;;;;10.00;9.10;;;;;;;11.89;100.00;99810.47;4932237;29;20237;-82
2022/06/15 03:31:16;;;;;;;10.30;9.23;;;;;;;11.94;100.00;99817.03;4915111;29;20203;-83
2022/06/15 03:33:44;;;;;;;10.00;9.00;;;;;;;12.03;100.00;99819.19;4919836;29;20223;-83
2022/06/15 03:36:16;;;;;;;10.60;8.77;;;;;;;12.10;100.00;99819.09;4909158;29;20177;-83
2022/06/15 03:38:54;;;;;;;10.67;9.67;;;;;;;12.19;100.00;99823.94;5043264;23;20255;-80
2022/06/15 03:42:26;;;;;;;9.57;8.57;;;;;;;12.31;100.00;99818.63;4932374;23;20187;-82
2022/06/15 03:46:25;;;;;;;9.57;8.67;;;;;;;12.46;100.00;99810.97;4966066;23;20290;31
2022/06/15 03:50:39;;;;;;;9.50;8.60;;;;;;;12.66;100.00;99811.53;5117316;23;20235;-82
2022/06/15 03:53:47;;;;;;;8.80;8.10;;;;;;;12.84;100.00;99820.56;5245906;23;20238;-83
2022/06/15 03:57:12;;;;;;;9.93;8.97;;;;;;;12.97;100.00;99812.34;4946471;23;20239;-83
2022/06/15 04:18:05;;;;;;;8.47;6.57;;;;;;;17.41;100.00;99816.25;4937052;29;20296;-85
2022/06/15 04:20:48;;;;;;;6.67;6.07;;;;;;;17.99;100.00;99814.50;4922012;29;20259;-93
2022/06/15 04:23:20;;;;;;;7.17;5.87;;;;;;;18.59;100.00;99816.66;4887383;29;20235;-94
2022/06/15 04:25:51;;;;;;;7.13;6.43;;;;;;;19.44;100.00;99823.28;4887712;29;20507;-94
2022/06/15 04:28:22;;;;;;;6.70;6.00;;;;;;;20.33;100.00;99824.47;4903002;29;20234;-95
2022/06/15 04:30:51;;;;;;;6.87;5.70;;;;;;;21.10;88.29;99843.63;4888061;29;20626;-91
2022/06/15 04:33:24;;;;;;;7.63;5.43;;;;;;;21.77;81.52;99828.34;4873013;29;20222;-89
2022/06/15 04:35:52;;;;;;;7.13;5.17;;;;;;;22.19;76.20;99815.91;4872766;29;20191;-95
2022/06/15 04:38:21;;;;;;;5.87;5.33;;;;;;;22.40;73.13;99811.81;4887813;29;20195;-95
2022/06/15 04:41:02;;;;;;;6.40;5.63;;;;;;;21.76;75.66;99804.91;4875343;29;20202;-91
2022/06/15 04:43:31;;;;;;;6.00;5.40;;;;;;;20.87;85.71;99805.38;4888376;29;20226;-94
2022/06/15 04:45:58;;;;;;;6.63;5.40;;;;;;;20.22;91.68;99813.59;4903848;29;20214;-93
2022/06/15 04:48:26;;;;;;;6.00;5.40;;;;;;;19.53;99.09;99808.06;4906217;29;20202;-95
2022/06/15 04:50:55;;;;;;;6.50;5.20;;;;;;;19.05;100.00;99806.69;4906071;29;20198;-87
2022/06/15 04:53:27;;;;;;;6.30;5.67;;;;;;;18.63;100.00;99804.19;4906907;29;20193;-89
2022/06/15 04:55:54;;;;;;;7.20;6.50;;;;;;;18.21;100.00;99808.88;4890541;29;20253;-94
2022/06/15 04:58:21;;;;;;;6.67;6.07;;;;;;;17.80;100.00;99807.88;4906119;29;20293;-91
2022/06/15 05:00:53;;;;;;;6.40;5.90;;;;;;;17.55;100.00;99813.91;4906549;29;20610;-93
2022/06/15 05:03:20;;;;;;;8.10;7.43;;;;;;;17.30;100.00;99814.56;4905604;29;20298;-88
2022/06/15 05:05:54;;;;;;;9.93;7.40;;;;;;;17.11;100.00;99818.72;4888313;29;20213;-89
2022/06/15 05:08:20;;;;;;;7.27;6.53;;;;;;;16.92;100.00;99815.56;4887024;29;20190;-86
2022/06/15 05:10:49;;;;;;;7.50;6.80;;;;;;;16.91;100.00;99811.22;4886964;29;20195;-92
2022/06/15 05:13:16;;;;;;;7.57;6.87;;;;;;;17.13;100.00;99814.69;4903574;29;20213;-94
2022/06/15 05:15:46;;;;;;;8.27;6.70;;;;;;;17.24;100.00;99822.88;4891086;29;20316;-92
2022/06/15 05:18:13;;;;;;;8.07;7.23;;;;;;;17.35;100.00;99819.19;4921127;29;20194;-92
2022/06/15 05:20:41;;;;;;;7.20;6.50;;;;;;;17.44;100.00;99829.28;4890325;29;20193;-89
2022/06/15 05:23:15;;;;;;;8.67;6.43;;;;;;;17.57;100.00;99819.91;4883177;29;20206;-90
2022/06/15 05:26:26;;;;;;;7.57;6.30;;;;;;;17.76;100.00;99818.44;4841955;29;20221;-89
2022/06/15 05:28:54;;;;;;;7.13;6.03;;;;;;;17.90;100.00;99816.06;4827799;29;20559;-91
2022/06/15 05:31:22;;;;;;;7.67;6.17;;;;;;;18.07;100.00;99821.28;4849518;29;20295;-86
2022/06/15 05:33:54;;;;;;;8.53;6.70;;;;;;;18.12;100.00;99815.91;4883357;29;20214;-89
2022/06/15 05:36:30;;;;;;;7.03;6.03;;;;;;;18.30;100.00;99813.53;4870845;29;20666;-92
2022/06/15 05:38:58;;;;;;;6.50;5.90;;;;;;;18.41;100.00;99817.13;4871121;29;20418;-90
2022/06/15 05:41:26;;;;;;;9.67;6.43;;;;;;;18.45;100.00;99812.78;4901660;29;20202;-94
2022/06/15 05:46:46;;;;;;;7.03;6.03;;;;;;;18.84;100.00;99816.72;4920637;29;20301;-88
2022/06/15 05:49:25;;;;;;;6.30;5.70;;;;;;;19.01;100.00;99816.47;4892569;29;20197;-91
2022/06/15 05:51:54;;;;;;;6.73;6.13;;;;;;;19.18;100.00;99817.00;4921351;29;20245;-93
2022/06/15 05:54:21;;;;;;;6.60;5.90;;;;;;;19.28;100.00;99816.19;4889812;29;20290;-91
2022/06/15 05:56:48;;;;;;;6.83;5.87;;;;;;;19.34;100.00;99815.13;4905245;29;20540;-91
2022/06/15 05:59:15;;;;;;;8.37;6.40;;;;;;;19.38;100.00;99824.34;4919750;29;20286;-92
2022/06/15 06:01:42;;;;;;;7.10;6.40;;;;;;;19.36;100.00;99816.44;4920192;29;20213;-85
2022/06/15 06:04:16;;;;;;;7.50;6.27;;;;;;;19.52;100.00;99821.91;4919992;29;20206;-89
2022/06/15 06:06:44;;;;;;;8.87;6.57;;;;;;;19.54;100.00;99820.56;4886146;29;20220;-88
2022/06/15 06:09:10;;;;;;;7.23;6.30;;;;;;;19.65;100.00;99824.06;4886180;29;20183;-91
2022/06/15 06:11:37;;;;;;;7.17;6.40;;;;;;;19.66;100.00;99828.44;4894850;29;20668;-86
2022/06/15 06:14:04;;;;;;;9.27;5.87;;;;;;;19.83;100.00;99834.38;4909095;29;20198;-90
2022/06/15 06:16:31;;;;;;;7.67;6.20;;;;;;;19.92;100.00;99821.03;4889016;29;20318;-95
2022/06/15 06:18:58;;;;;;;8.83;6.07;;;;;;;20.14;100.00;99826.94;4898209;29;20230;-89
2022/06/15 06:21:25;;;;;;;9.83;5.83;;;;;;;20.25;100.00;99828.53;4898454;29;20560;-91
2022/06/15 06:23:52;;;;;;;8.67;5.60;;;;;;;20.37;100.00;99829.06;4885918;29;20299;-93
2022/06/15 06:26:27;;;;;;;8.27;5.63;;;;;;;20.26;100.00;99834.78;4870715;29;20619;-93
2022/06/15 06:28:56;;;;;;;9.23;6.20;;;;;;;20.33;100.00;99832.63;4885791;29;20210;-93
2022/06/15 06:31:24;;;;;;;7.13;6.10;;;;;;;20.53;100.00;99824.38;4870644;29;20633;-94
2022/06/15 06:33:51;;;;;;;8.43;5.90;;;;;;;20.68;100.00;99824.28;4885647;29;20336;-90
2022/06/15 06:36:29;;;;;;;6.67;5.80;;;;;;;20.70;100.00;99829.44;4870173;29;20639;-89
2022/06/15 06:38:57;;;;;;;8.23;5.90;;;;;;;20.85;100.00;99832.09;4885571;29;20321;-92
2022/06/15 06:41:25;;;;;;;8.53;5.87;;;;;;;20.84;100.00;99828.56;4885854;29;20231;-94
2022/06/15 06:43:59;;;;;;;8.70;6.03;;;;;;;21.12;100.00;99831.63;4887639;29;20572;-94
2022/06/15 06:46:26;;;;;;;7.00;5.77;;;;;;;21.31;100.00;99836.13;4905234;29;20307;-93
2022/06/15 06:48:53;;;;;;;7.97;5.70;;;;;;;21.54;100.00;99831.84;4908484;29;20218;-93
2022/06/15 06:51:20;;;;;;;6.70;6.10;;;;;;;21.64;99.08;99828.22;4923882;29;20193;-93
2022/06/15 06:53:47;;;;;;;6.90;5.63;;;;;;;21.71;100.00;99829.50;4908658;29;20252;-92
2022/06/15 06:56:14;;;;;;;6.30;5.77;;;;;;;21.84;96.86;99836.19;4892364;29;20571;-94
2022/06/15 06:58:41;;;;;;;7.00;5.90;;;;;;;21.81;98.99;99832.13;4892479;29;20231;-94
2022/06/15 07:01:08;;;;;;;7.27;5.43;;;;;;;21.98;99.25;99820.78;4908141;29;20200;-94
2022/06/15 07:03:35;;;;;;;5.60;5.07;;;;;;;22.16;96.22;99813.78;4908383;29;20194;-93
2022/06/15 07:06:07;;;;;;;6.63;5.30;;;;;;;22.25;93.91;99817.50;4903596;29;20217;-92
2022/06/15 07:08:37;;;;;;;10.10;5.40;;;;;;;22.30;93.35;99820.94;4888922;29;20295;-89
2022/06/15 07:11:13;;;;;;;8.18;4.97;;;;;;;22.50;92.79;99822.59;4904859;29;20232;-94
2022/06/15 07:13:40;;;;;;;7.20;4.70;;;;;;;22.57;88.90;99816.81;4887642;29;20598;-89
2022/06/15 07:16:11;;;;;;;5.97;4.53;;;;;;;22.59;89.90;99809.91;4870069;29;20235;-94
2022/06/15 07:18:38;;;;;;;4.65;4.25;;;;;;;22.89;87.71;99807.91;4902863;29;20217;-90
2022/06/15 07:21:17;;;;;;;6.72;4.72;;;;;;;23.06;86.51;99805.44;4892034;29;20202;-92
2022/06/15 07:23:48;;;;;;;5.22;4.32;;;;;;;23.18;84.55;99797.63;4907461;29;20213;-92
2022/06/15 07:26:22;;;;;;;6.03;4.38;;;;;;;23.29;83.56;99801.78;4908451;29;20218;-90
2022/06/15 07:28:49;;;;;;;4.40;4.00;;;;;;;23.47;81.09;99791.97;4888314;29;20237;-91
2022/06/15 07:31:24;;;;;;;5.55;4.03;;;;;;;23.49;78.96;99790.53;4888606;29;20190;-93
2022/06/15 07:33:51;;;;;;;6.78;3.88;;;;;;;23.58;82.47;99793.38;4888738;29;20213;-92
2022/06/15 07:36:18;;;;;;;6.97;4.30;;;;;;;23.64;78.36;99794.91;4888232;29;20269;-89
2022/06/15 07:38:45;;;;;;;6.63;3.78;;;;;;;23.69;78.32;99789.38;4904014;29;20281;-90
2022/06/15 07:41:12;;;;;;;6.28;3.80;;;;;;;23.77;77.89;99787.84;4888170;29;20237;-94
2022/06/15 07:43:39;;;;;;;6.57;3.45;;;;;;;23.86;76.44;99781.38;4888244;29;20245;-90
2022/06/15 07:46:07;;;;;;;4.68;3.00;;;;;;;23.96;73.46;99781.16;4905818;29;20323;-94
2022/06/15 07:51:29;;;;;;;4.20;3.80;;;;;;;24.35;67.84;99785.34;4909559;29;20257;-91
2022/06/15 07:53:57;;;;;;;5.45;3.40;;;;;;;24.51;67.77;99768.25;4907066;29;20197;-89
2022/06/15 07:56:24;;;;;;;4.65;3.20;;;;;;;24.64;64.16;99768.50;4906791;29;20186;-94
2022/06/15 07:58:51;;;;;;;7.32;3.17;;;;;;;24.77;63.53;99765.75;4890402;29;20262;-88
2022/06/15 08:01:18;;;;;;;5.32;3.72;;;;;;;24.95;61.80;99773.03;4891356;29;20264;-90
2022/06/15 08:03:45;;;;;;;6.47;3.45;;;;;;;25.10;60.11;99768.28;4907122;29;20192;-94
2022/06/15 08:06:13;;;;;;;2.95;2.75;;;;;;;25.23;59.20;99764.66;4898003;29;20704;-92
2022/06/15 08:08:41;;;;;;;4.55;3.17;;;;;;;25.21;58.17;99758.66;4869270;29;20230;-91
2022/06/15 08:11:08;;;;;;;7.00;3.13;;;;;;;25.25;56.17;99752.25;4881821;29;20202;-91
2022/06/15 08:13:43;;;;;;;7.28;3.25;;;;;;;25.46;54.31;99757.22;4889505;29;20252;-89
2022/06/15 08:16:11;;;;;;;4.72;3.10;;;;;;;25.63;52.84;99751.84;4888349;29;20240;-86
2022/06/15 08:18:45;;;;;;;5.75;3.00;;;;;;;25.75;53.97;99750.13;4895017;29;20588;-89
2022/06/15 08:21:17;;;;;;;4.95;3.33;;;;;;;25.90;53.60;99756.31;4897634;29;20193;-91
2022/06/15 08:23:46;;;;;;;4.15;2.90;;;;;;;25.95;53.43;99748.72;4899441;29;20229;-89
2022/06/15 08:26:17;;;;;;;4.47;3.15;;;;;;;26.10;52.00;99744.75;4899420;29;20270;-88
2022/06/15 08:28:47;;;;;;;3.20;2.80;;;;;;;26.13;52.69;99742.16;4884663;29;20187;-88
2022/06/15 08:31:14;;;;;;;3.47;3.00;;;;;;;26.25;52.71;99739.66;4884148;29;20201;-90
2022/06/15 08:33:42;;;;;;;4.95;3.13;;;;;;;26.20;51.67;99737.00;4900164;29;20542;-89
2022/06/15 08:36:12;;;;;;;4.00;3.17;;;;;;;26.25;52.17;99742.38;4884434;29;20617;-89
2022/06/15 08:38:40;;;;;;;5.10;2.85;;;;;;;26.46;53.17;99739.81;4899511;29;20206;-90
2022/06/15 08:41:51;;;;;;;3.72;2.90;;;;;;;26.47;51.30;99733.19;4883922;29;20497;-90
2022/06/15 08:44:55;;;;;;;4.68;3.10;;;;;;;26.46;52.97;99741.75;4864104;29;20201;-88
2022/06/15 08:47:47;;;;;;;3.13;2.72;;;;;;;26.42;52.99;99738.84;4876753;29;20293;-89
2022/06/15 08:50:40;;;;;;;4.20;2.78;;;;;;;26.58;54.72;99737.25;4883845;29;20250;-91
2022/06/15 08:53:32;;;;;;;4.07;3.10;;;;;;;26.65;53.65;99745.00;4878856;29;20287;-89
2022/06/15 08:56:08;;;;;;;3.85;3.45;;;;;;;26.66;54.32;99744.69;4919496;29;20245;-92
2022/06/15 08:58:43;;;;;;;5.30;3.03;;;;;;;26.47;53.92;99746.94;4902465;29;20185;-90
2022/06/15 09:01:28;;;;;;;5.18;3.35;;;;;;;26.61;55.09;99749.53;4891615;29;20225;-86
2022/06/15 09:04:11;;;;;;;4.78;3.30;;;;;;;26.57;52.77;99741.13;4868682;29;20193;-86
2022/06/15 09:06:45;;;;;;;4.78;2.97;;;;;;;26.72;51.71;99737.09;4875086;29;20217;-86
2022/06/15 09:09:36;;;;;;;6.10;3.28;;;;;;;26.83;55.36;99743.09;4886183;29;20197;-87
2022/06/15 09:15:14;;;;;;;4.40;3.03;;;;;;;26.55;53.61;99734.34;4933514;29;20200;-88
2022/06/15 09:17:41;;;;;;;7.20;3.03;;;;;;;26.72;54.49;99737.91;4883511;29;20611;-89
2022/06/15 09:20:20;;;;;;;4.43;3.50;;;;;;;26.90;53.01;99737.91;4906880;29;20672;-89
2022/06/15 09:22:57;;;;;;;4.47;3.15;;;;;;;26.88;52.88;99731.94;4905298;29;20280;-91
2022/06/15 09:25:32;;;;;;;4.97;3.28;;;;;;;26.79;52.81;99734.66;4880802;29;20299;-90
2022/06/15 09:28:26;;;;;;;4.07;3.38;;;;;;;27.04;52.53;99746.78;4882574;29;20206;-90
2022/06/15 09:30:56;;;;;;;5.07;3.20;;;;;;;27.11;52.04;99741.59;4881297;29;20510;-93
2022/06/15 09:33:32;;;;;;;6.53;3.03;;;;;;;27.15;50.80;99737.91;4883832;29;20205;-88
2022/06/15 09:36:08;;;;;;;5.80;3.22;;;;;;;27.00;49.60;99735.66;4877057;29;20201;-91
2022/06/15 09:38:37;;;;;;;6.38;2.72;;;;;;;27.30;51.34;99730.22;4886206;29;20578;-89
2022/06/15 09:41:26;;;;;;;4.10;2.97;;;;;;;27.37;50.23;99739.63;4869415;29;20295;-86
2022/06/15 09:44:00;;;;;;;3.67;3.00;;;;;;;27.45;49.98;99736.03;4884989;29;20206;-90
2022/06/15 09:47:00;;;;;;;3.65;3.22;;;;;;;27.64;48.12;99743.09;4904953;29;20542;-90
2022/06/15 09:49:41;;;;;;;6.78;3.28;;;;;;;27.75;46.82;99745.19;4877303;29;20593;-89
2022/06/15 09:52:15;;;;;;;3.38;2.78;;;;;;;27.75;47.79;99733.34;4891495;29;20250;-91
2022/06/15 09:55:24;;;;;;;5.93;3.10;;;;;;;27.88;46.25;99730.38;4882328;29;20583;-93
2022/06/15 09:57:52;;;;;;;4.05;3.05;;;;;;;28.03;48.45;99724.31;4808067;29;20210;-90
2022/06/15 10:00:19;;;;;;;4.43;3.38;;;;;;;28.03;45.91;99723.50;4833973;29;20201;-89
2022/06/15 10:02:55;;;;;;;2.75;2.50;;;;;;;27.97;46.72;99720.13;4881738;29;20241;-91
2022/06/15 10:05:30;;;;;;;4.38;2.70;;;;;;;27.89;49.67;99718.22;4885978;29;20185;-90
2022/06/15 10:08:00;;;;;;;4.55;2.95;;;;;;;27.99;46.68;99720.59;4874524;29;20282;-91
2022/06/15 10:10:43;;;;;;;3.42;2.83;;;;;;;27.99;44.80;99714.28;4882519;29;20278;-89
2022/06/15 10:13:19;;;;;;;4.88;2.95;;;;;;;28.01;45.17;99714.75;4868941;29;20486;-91
2022/06/15 10:16:01;;;;;;;3.10;2.65;;;;;;;28.14;45.70;99712.91;4882291;29;20313;-91
2022/06/15 10:18:46;;;;;;;3.13;2.80;;;;;;;28.20;44.87;99708.84;4893159;29;20540;-90
2022/06/15 10:21:13;;;;;;;4.07;2.90;;;;;;;28.24;43.61;99713.34;4919311;29;20249;-86
2022/06/15 10:24:31;;;;;;;4.13;2.97;;;;;;;28.48;43.32;99704.41;4904346;29;20255;-90
2022/06/15 10:27:24;;;;;;;3.70;3.10;;;;;;;28.61;42.78;99702.50;4884645;29;20645;-92
2022/06/15 10:30:14;;;;;;;2.97;2.65;;;;;;;28.76;44.18;99690.91;4926479;29;20237;-88
2022/06/15 10:33:13;;;;;;;6.13;2.80;;;;;;;28.87;43.79;99686.59;4887183;29;20226;-92
2022/06/15 10:35:40;;;;;;;3.60;2.58;;;;;;;28.95;44.30;99687.63;4866792;29;20219;-89
2022/06/15 10:38:13;;;;;;;3.58;2.97;;;;;;;29.14;40.18;99691.50;4894634;29;20528;-88
2022/06/15 10:40:51;;;;;;;3.53;2.83;;;;;;;29.38;40.55;99685.25;4885091;29;20190;-92
2022/06/15 10:43:21;;;;;;;4.45;2.60;;;;;;;29.17;39.75;99679.75;4866936;29;20278;-90
2022/06/15 10:45:51;;;;;;;4.15;2.85;;;;;;;29.10;40.67;99687.81;4897622;29;20232;-85
2022/06/15 10:48:34;;;;;;;2.88;2.67;;;;;;;29.29;41.19;99681.75;4919518;29;20228;-91
2022/06/15 10:51:04;;;;;;;3.63;2.88;;;;;;;29.13;39.92;99683.56;4888363;29;20198;-93
2022/06/15 10:53:40;;;;;;;3.88;2.85;;;;;;;29.15;41.48;99681.28;4920088;29;20201;-90
2022/06/15 11:02:28;;;;;;;3.65;2.85;;;;;;;29.19;41.16;99674.72;4900689;29;20588;-91
2022/06/15 11:05:04;;;;;;;3.75;2.63;;;;;;;29.06;42.10;99669.53;4900709;29;20213;-90
2022/06/15 11:07:34;;;;;;;4.15;2.78;;;;;;;28.44;44.46;99665.72;4885097;29;20199;-90
2022/06/15 11:10:13;;;;;;;3.85;2.97;;;;;;;28.37;44.16;99665.44;4897030;29;20263;-89
2022/06/15 11:12:49;;;;;;;5.07;3.20;;;;;;;28.57;43.97;99657.47;4897151;29;20195;-89
2022/06/15 11:15:15;;;;;;;5.05;2.90;;;;;;;28.66;43.81;99666.47;4917559;29;20557;-90
2022/06/15 11:18:04;;;;;;;3.80;2.78;;;;;;;29.05;41.73;99667.91;4919590;29;20543;-86
2022/06/15 11:20:53;;;;;;;3.75;3.00;;;;;;;29.46;40.15;99661.44;4886330;29;20251;-89
2022/06/15 11:23:25;;;;;;;4.10;3.40;;;;;;;29.79;39.69;99655.81;4916489;29;20175;-90
2022/06/15 11:26:52;;;;;;;3.30;2.70;;;;;;;29.81;39.00;99653.50;4900696;29;20186;-91
2022/06/15 11:28:57;;;;;;;4.32;3.08;;;;;;;29.57;39.66;99657.09;4903576;29;20505;-83
2022/06/15 11:31:44;;;;;;;5.35;2.90;;;;;;;29.29;42.02;99651.41;4917262;29;20277;-91
2022/06/15 11:34:20;;;;;;;3.47;3.03;;;;;;;29.19;42.20;99657.38;4895220;29;20199;-90
2022/06/15 11:36:58;;;;;;;5.53;3.13;;;;;;;29.42;41.24;99643.97;4903872;29;20244;-90
2022/06/15 11:39:45;;;;;;;4.40;2.90;;;;;;;29.87;40.87;99652.09;4873500;29;20246;-90
2022/06/15 11:42:15;;;;;;;5.00;2.92;;;;;;;29.59;40.71;99638.22;4884906;29;20509;-93
2022/06/15 11:44:43;;;;;;;4.90;2.78;;;;;;;29.88;39.87;99645.44;4898610;29;20250;-88
2022/06/15 11:47:20;;;;;;;4.60;2.90;;;;;;;30.07;39.96;99648.44;4891001;29;20249;-90
2022/06/15 11:49:50;;;;;;;3.80;3.00;;;;;;;29.77;41.52;99648.66;4890695;29;20241;-88
2022/06/15 11:52:27;;;;;;;4.78;2.67;;;;;;;29.75;41.15;99650.19;4909672;29;20199;-86
2022/06/15 11:55:13;;;;;;;4.13;2.92;;;;;;;30.05;40.42;99654.28;4872269;29;20598;-89
2022/06/15 11:57:50;;;;;;;3.20;2.90;;;;;;;30.13;40.34;99655.34;4888293;29;20191;-89
2022/06/15 12:00:29;;;;;;;4.75;2.78;;;;;;;29.81;40.66;99645.22;4903298;29;20205;-90
2022/06/15 12:03:05;;;;;;;4.22;2.60;;;;;;;29.66;42.09;99642.03;4902900;29;20553;-87
2022/06/15 12:05:34;;;;;;;5.22;2.95;;;;;;;29.72;43.08;99637.84;4888830;29;20198;-88
2022/06/15 12:08:08;;;;;;;3.33;2.92;;;;;;;29.89;41.74;99636.03;4902545;29;20207;-91
2022/06/15 12:10:44;;;;;;;3.90;2.97;;;;;;;29.87;42.59;99638.31;4903687;29;20199;-90
2022/06/15 12:13:24;;;;;;;3.72;2.78;;;;;;;29.60;43.47;99640.63;4904209;29;20190;-92
2022/06/15 12:16:03;;;;;;;5.30;3.00;;;;;;;28.98;43.47;99638.13;4920547;29;20218;-87
2022/06/15 12:18:36;;;;;;;3.67;3.03;;;;;;;28.93;43.91;99646.59;4922226;29;20195;-89
2022/06/15 12:21:37;;;;;;;3.03;2.80;;;;;;;28.93;42.88;99640.31;4921637;29;20185;-86
2022/06/15 12:24:10;;;;;;;3.88;2.90;;;;;;;28.87;42.77;99632.25;4921611;29;20417;-93
2022/06/15 12:27:15;;;;;;;3.10;2.90;;;;;;;29.00;42.94;99640.53;4921835;29;20178;-88
2022/06/15 12:30:07;;;;;;;3.35;2.83;;;;;;;29.36;42.62;99628.78;4922529;29;20249;-86
2022/06/15 12:32:41;;;;;;;3.38;2.78;;;;;;;29.59;40.08;99622.47;4938656;29;20630;-91
2022/06/15 12:35:21;;;;;;;3.38;2.85;;;;;;;29.90;40.67;99621.09;4906113;29;20194;-91
2022/06/15 12:38:12;;;;;;;4.20;2.80;;;;;;;30.41;40.20;99624.97;4909413;29;20219;-91
2022/06/15 12:40:45;;;;;;;4.50;2.85;;;;;;;30.72;38.67;99630.59;4903455;29;20266;-88
2022/06/15 12:43:38;;;;;;;3.55;2.90;;;;;;;30.85;37.42;99625.81;4902787;29;20195;-90
2022/06/15 12:46:10;;;;;;;4.43;2.95;;;;;;;31.03;36.17;99618.81;4904187;29;20483;-88
2022/06/15 12:48:43;;;;;;;2.70;2.50;;;;;;;30.98;38.50;99617.06;4906338;29;20198;-91
2022/06/15 12:51:16;;;;;;;4.72;2.60;;;;;;;31.09;37.72;99614.63;4915596;29;20221;-90
2022/06/15 12:53:58;;;;;;;4.63;2.65;;;;;;;31.02;37.16;99618.03;4868683;29;20294;-89
2022/06/15 12:56:40;;;;;;;4.15;2.70;;;;;;;31.34;36.29;99613.31;4880852;29;20547;-91
2022/06/15 12:59:24;;;;;;;4.50;3.00;;;;;;;31.30;37.77;99612.41;4887089;29;20568;-92
2022/06/15 13:02:02;;;;;;;3.60;2.72;;;;;;;31.74;35.66;99613.09;4902949;29;20215;-90
2022/06/15 13:04:40;;;;;;;2.95;2.70;;;;;;;32.13;34.41;99605.66;4902811;29;20175;-89
2022/06/15 13:07:28;;;;;;;6.32;3.03;;;;;;;32.07;34.47;99607.09;4883033;29;20568;-91
2022/06/15 13:10:08;;;;;;;6.15;3.00;;;;;;;32.13;35.41;99610.41;4867868;29;20306;-90
2022/06/15 13:12:48;;;;;;;2.85;2.40;;;;;;;31.54;35.90;99602.28;4883570;29;20507;-91
2022/06/15 13:15:54;;;;;;;3.28;2.80;;;;;;;32.07;33.25;99612.63;4918197;29;20292;-91
2022/06/15 13:18:43;;;;;;;3.67;2.85;;;;;;;33.23;32.96;99602.25;4905406;29;20269;-88
2022/06/15 13:21:10;;;;;;;5.00;2.72;;;;;;;34.01;31.03;99604.28;4889517;29;20269;-90
2022/06/15 13:23:45;;;;;;;4.28;2.78;;;;;;;33.61;31.55;99596.53;4905557;29;20198;-91
2022/06/15 13:26:38;;;;;;;3.22;2.60;;;;;;;32.42;33.40;99598.75;4890199;29;20501;-91
2022/06/15 13:29:15;;;;;;;3.05;2.65;;;;;;;31.71;35.20;99604.69;4893557;29;20222;-91
2022/06/15 13:31:47;;;;;;;4.90;2.60;;;;;;;31.03;36.34;99604.97;4921172;29;20186;-86
2022/06/15 13:34:37;;;;;;;3.10;2.75;;;;;;;30.68;36.95;99607.59;4921117;29;20197;-90
2022/06/15 13:37:26;;;;;;;3.28;2.63;;;;;;;30.07;38.28;99599.50;4886523;29;20224;-90
2022/06/15 13:40:00;;;;;;;2.83;2.63;;;;;;;29.76;39.32;99591.06;4901874;29;20262;-87
2022/06/15 13:42:29;;;;;;;4.13;2.95;;;;;;;31.68;35.52;99599.88;4886469;29;20213;-89
2022/06/15 13:45:12;;;;;;;3.13;2.70;;;;;;;32.34;35.24;99591.44;4910018;29;20270;-91
2022/06/15 13:47:43;;;;;;;3.72;2.60;;;;;;;33.52;32.93;99592.41;4874661;29;20253;-87
2022/06/15 13:50:10;;;;;;;4.32;2.67;;;;;;;34.36;30.25;99589.25;4885881;29;20179;-88